createdAt,value
2022-09-09T00:01:33.889Z,21.30
2022-09-09T00:04:25.086Z,22.60
2022-09-09T00:07:07.393Z,19.60
2022-09-09T00:09:54.855Z,22.80
2022-09-09T00:12:35.791Z,20.10
2022-09-09T00:15:14.098Z,19.50
2022-09-09T00:18:10.925Z,22.30
2022-09-09T00:20:41.914Z,20.60
2022-09-09T00:23:29.585Z,18.60
2022-09-09T00:26:07.967Z,24.60
2022-09-09T00:28:44.924Z,19.60
2022-09-09T00:31:17.704Z,21.80
2022-09-09T00:33:47.506Z,22.00
2022-09-09T00:36:19.873Z,21.60
2022-09-09T00:38:56.442Z,19.20
2022-09-09T00:41:59.018Z,19.70
2022-09-09T00:44:36.458Z,21.80
2022-09-09T00:47:05.082Z,23.50
2022-09-09T00:49:39.471Z,24.10
2022-09-09T00:52:13.494Z,23.70
2022-09-09T00:54:53.814Z,22.90
2022-09-09T00:57:35.810Z,20.40
2022-09-09T01:00:06.801Z,25.30
2022-09-09T01:03:15.751Z,21.20
2022-09-09T01:06:39.959Z,20.40
2022-09-09T01:09:31.154Z,19.40
2022-09-09T01:12:04.686Z,20.20
2022-09-09T01:17:26.999Z,17.60
2022-09-09T01:20:24.068Z,21.50
2022-09-09T01:23:00.974Z,18.90
2022-09-09T01:26:04.698Z,18.00
2022-09-09T01:28:36.779Z,17.90
2022-09-09T01:31:15.758Z,22.40
2022-09-09T01:33:48.481Z,14.70
2022-09-09T01:36:22.424Z,17.70
2022-09-09T01:38:53.629Z,17.50
2022-09-09T01:41:22.332Z,19.30
2022-09-09T01:44:10.298Z,17.00
2022-09-09T01:46:40.313Z,19.90
2022-09-09T01:49:15.077Z,19.20
2022-09-09T01:51:45.717Z,21.00
2022-09-09T01:54:15.782Z,20.10
2022-09-09T01:57:02.668Z,18.20
2022-09-09T01:59:49.778Z,20.20
2022-09-09T02:02:33.527Z,23.00
2022-09-09T02:05:38.667Z,22.50
2022-09-09T02:08:16.590Z,17.50
2022-09-09T02:11:07.095Z,26.30
2022-09-09T02:13:47.394Z,23.00
2022-09-09T02:16:25.711Z,23.60
2022-09-09T02:18:57.614Z,22.30
2022-09-09T02:21:36.330Z,22.20
2022-09-09T02:24:10.953Z,23.70
2022-09-09T02:26:46.287Z,19.20
2022-09-09T02:29:25.629Z,21.30
2022-09-09T02:31:56.690Z,26.30
2022-09-09T02:34:28.926Z,24.40
2022-09-09T02:37:01.007Z,23.10
2022-09-09T02:39:29.288Z,20.50
2022-09-09T02:41:57.598Z,20.50
2022-09-09T02:44:31.051Z,19.20
2022-09-09T02:47:29.750Z,20.50
2022-09-09T02:50:36.778Z,22.30
2022-09-09T02:53:29.390Z,20.90
2022-09-09T02:56:08.042Z,17.90
2022-09-09T02:58:37.932Z,17.50
2022-09-09T03:01:07.739Z,18.40
2022-09-09T03:03:36.287Z,20.00
2022-09-09T03:06:08.270Z,19.90
2022-09-09T03:08:36.948Z,19.40
2022-09-09T03:11:05.853Z,20.80
2022-09-09T03:13:36.575Z,18.30
2022-09-09T03:16:05.676Z,17.40
2022-09-09T03:18:36.708Z,16.90
2022-09-09T03:21:05.301Z,17.00
2022-09-09T03:23:33.627Z,18.80
2022-09-09T03:26:03.494Z,18.20
2022-09-09T03:28:40.145Z,15.90
2022-09-09T03:31:11.448Z,19.20
2022-09-09T03:33:44.806Z,14.70
2022-09-09T03:36:16.070Z,15.70
2022-09-09T03:38:44.506Z,15.10
2022-09-09T03:41:13.931Z,13.80
2022-09-09T03:43:43.005Z,16.50
2022-09-09T03:46:11.488Z,14.40
2022-09-09T03:48:39.810Z,11.60
2022-09-09T03:51:08.125Z,17.20
2022-09-09T03:53:36.914Z,12.30
2022-09-09T03:56:07.723Z,15.40
2022-09-09T03:58:37.067Z,14.00
2022-09-09T04:01:14.699Z,13.20
2022-09-09T04:06:15.809Z,16.00
2022-09-09T04:08:46.218Z,14.30
2022-09-09T04:11:17.095Z,16.70
2022-09-09T04:13:45.680Z,18.50
2022-09-09T04:16:15.870Z,19.00
2022-09-09T04:18:45.216Z,19.20
2022-09-09T04:21:14.434Z,19.40
2022-09-09T04:23:43.133Z,20.10
2022-09-09T04:26:11.480Z,19.90
2022-09-09T04:28:39.975Z,17.90
2022-09-09T04:31:19.836Z,18.10
2022-09-09T04:33:48.667Z,18.70
2022-09-09T04:36:20.442Z,21.10
2022-09-09T04:38:50.333Z,18.40
2022-09-09T04:41:18.949Z,17.60
2022-09-09T04:43:49.570Z,19.20
2022-09-09T04:46:18.557Z,20.00
2022-09-09T04:48:47.082Z,20.90
2022-09-09T04:51:15.899Z,18.70
2022-09-09T04:53:46.350Z,20.60
2022-09-09T04:56:16.816Z,20.00
2022-09-09T04:58:52.181Z,20.80
2022-09-09T05:01:25.437Z,21.10
2022-09-09T05:03:55.708Z,20.20
2022-09-09T05:06:25.129Z,20.00
2022-09-09T05:08:57.405Z,20.30
2022-09-09T05:11:30.257Z,22.90
2022-09-09T05:14:21.598Z,17.10
2022-09-09T05:16:51.119Z,19.40
2022-09-09T05:19:21.018Z,16.70
2022-09-09T05:21:51.250Z,24.40
2022-09-09T05:24:24.387Z,20.70
2022-09-09T05:26:54.875Z,21.20
2022-09-09T05:29:23.108Z,19.80
2022-09-09T05:31:51.362Z,18.90
2022-09-09T05:34:21.895Z,22.30
2022-09-09T05:36:51.037Z,17.30
2022-09-09T05:39:19.586Z,22.60
2022-09-09T05:41:47.895Z,19.90
2022-09-09T05:44:16.289Z,18.20
2022-09-09T05:46:45.878Z,18.70
2022-09-09T05:49:16.817Z,16.80
2022-09-09T05:51:45.473Z,16.20
2022-09-09T05:54:16.663Z,16.60
2022-09-09T05:56:51.792Z,22.00
2022-09-09T05:59:20.958Z,17.80
2022-09-09T06:01:49.583Z,15.10
2022-09-09T06:04:28.350Z,17.40
2022-09-09T06:06:56.585Z,15.10
2022-09-09T06:09:25.098Z,16.50
2022-09-09T06:11:53.362Z,14.10
2022-09-09T06:14:23.026Z,16.60
2022-09-09T06:16:53.017Z,15.30
2022-09-09T06:19:27.582Z,12.80
2022-09-09T06:21:58.126Z,17.40
2022-09-09T06:24:26.546Z,16.10
2022-09-09T06:26:55.157Z,11.80
2022-09-09T06:29:26.447Z,14.00
2022-09-09T06:31:54.752Z,17.60
2022-09-09T06:34:24.823Z,11.40
2022-09-09T06:36:58.853Z,13.50
2022-09-09T06:39:28.207Z,16.40
2022-09-09T06:41:58.970Z,12.70
2022-09-09T06:44:56.122Z,12.00
2022-09-09T06:47:31.260Z,14.60
2022-09-09T06:50:00.010Z,16.40
2022-09-09T06:52:29.629Z,15.10
2022-09-09T06:54:59.937Z,16.20
2022-09-09T06:57:36.931Z,16.10
2022-09-09T07:00:09.301Z,17.90
2022-09-09T07:02:40.778Z,13.60
2022-09-09T07:05:10.096Z,13.50
2022-09-09T07:07:38.379Z,20.10
2022-09-09T07:10:07.033Z,15.10
2022-09-09T07:12:35.788Z,16.80
2022-09-09T07:15:05.295Z,21.50
2022-09-09T07:17:33.597Z,19.00
2022-09-09T07:20:04.943Z,19.60
2022-09-09T07:22:34.686Z,16.20
2022-09-09T07:25:04.682Z,13.00
2022-09-09T07:27:32.958Z,16.40
2022-09-09T07:30:01.186Z,17.20
2022-09-09T07:32:31.538Z,16.10
2022-09-09T07:34:59.786Z,18.50
2022-09-09T07:37:28.638Z,13.10
2022-09-09T07:39:57.134Z,17.40
2022-09-09T07:42:26.270Z,16.30
2022-09-09T07:44:56.225Z,13.00
2022-09-09T07:47:26.371Z,12.00
2022-09-09T07:49:54.621Z,11.80
2022-09-09T07:52:27.772Z,13.60
2022-09-09T07:54:58.417Z,13.10
2022-09-09T07:57:27.092Z,10.60
2022-09-09T07:59:57.115Z,12.40
2022-09-09T08:02:26.709Z,10.90
2022-09-09T08:04:54.931Z,12.90
2022-09-09T08:07:24.597Z,7.60
2022-09-09T08:09:56.786Z,13.00
2022-09-09T08:12:29.085Z,10.50
2022-09-09T08:14:57.896Z,11.70
2022-09-09T08:17:28.968Z,8.80
2022-09-09T08:19:58.433Z,12.50
2022-09-09T08:22:28.985Z,9.60
2022-09-09T08:24:57.450Z,11.60
2022-09-09T08:27:26.787Z,9.50
2022-09-09T08:29:55.377Z,9.80
2022-09-09T08:32:24.994Z,9.20
2022-09-09T08:34:54.618Z,9.20
2022-09-09T08:37:25.019Z,9.50
2022-09-09T08:39:55.346Z,8.60
2022-09-09T08:42:42.174Z,10.70
2022-09-09T08:45:47.723Z,8.00
2022-09-09T08:48:22.083Z,9.70
2022-09-09T08:50:53.266Z,8.50
2022-09-09T08:53:32.773Z,8.00
2022-09-09T08:56:09.698Z,9.90
2022-09-09T08:58:58.428Z,8.80
2022-09-09T09:01:46.153Z,7.80
2022-09-09T09:07:18.765Z,5.80
2022-09-09T09:10:41.719Z,8.30
2022-09-09T09:13:18.261Z,6.70
2022-09-09T09:15:54.376Z,5.70
2022-09-09T09:18:22.891Z,6.10
2022-09-09T09:20:59.798Z,5.90
2022-09-09T09:23:42.537Z,6.30
2022-09-09T09:26:14.607Z,5.40
2022-09-09T09:28:44.356Z,7.80
2022-09-09T09:31:16.385Z,5.10
2022-09-09T09:33:51.588Z,6.80
2022-09-09T09:36:26.154Z,7.90
2022-09-09T09:41:50.000Z,6.10
2022-09-09T09:44:33.406Z,7.90
2022-09-09T09:47:18.215Z,4.30
2022-09-09T09:50:00.944Z,7.90
2022-09-09T09:52:33.389Z,5.00
2022-09-09T09:55:08.339Z,8.60
2022-09-09T09:57:37.754Z,4.70
2022-09-09T10:00:17.903Z,6.70
2022-09-09T10:02:53.032Z,3.20
2022-09-09T10:05:36.143Z,2.70
2022-09-09T10:08:10.466Z,3.40
2022-09-09T10:10:53.107Z,3.10
2022-09-09T10:13:45.999Z,4.10
2022-09-09T10:16:23.141Z,7.50
2022-09-09T10:19:18.001Z,4.50
2022-09-09T10:22:17.625Z,3.70
2022-09-09T10:25:00.748Z,4.70
2022-09-09T10:27:38.026Z,6.10
2022-09-09T10:30:18.517Z,8.40
2022-09-09T10:32:53.435Z,6.80
2022-09-09T10:35:27.595Z,3.20
2022-09-09T10:38:04.311Z,4.90
2022-09-09T10:40:49.886Z,3.50
2022-09-09T10:44:00.308Z,3.90
2022-09-09T10:46:32.020Z,4.20
2022-09-09T10:49:38.258Z,3.70
2022-09-09T10:52:29.813Z,3.00
2022-09-09T10:55:29.914Z,4.00
2022-09-09T10:58:01.672Z,2.80
2022-09-09T11:00:41.764Z,4.30
2022-09-09T11:03:21.175Z,3.60
2022-09-09T11:06:20.734Z,5.20
2022-09-09T11:08:53.779Z,8.30
2022-09-09T11:11:35.154Z,6.70
2022-09-09T11:14:13.626Z,4.40
2022-09-09T11:17:05.156Z,6.50
2022-09-09T11:19:41.563Z,3.50
2022-09-09T11:22:35.863Z,5.20
2022-09-09T11:25:35.363Z,3.00
2022-09-09T11:29:00.451Z,3.80
2022-09-09T11:31:53.935Z,5.80
2022-09-09T11:34:48.616Z,4.20
2022-09-09T11:39:53.128Z,5.20
2022-09-09T11:42:25.566Z,3.50
2022-09-09T11:44:56.122Z,3.30
2022-09-09T11:47:32.925Z,3.70
2022-09-09T11:50:33.247Z,3.20
2022-09-09T11:53:13.659Z,3.00
2022-09-09T11:55:41.937Z,3.50
2022-09-09T11:58:12.829Z,4.80
2022-09-09T12:00:45.601Z,3.20
2022-09-09T12:03:41.343Z,5.00
2022-09-09T12:06:12.604Z,4.70
2022-09-09T12:08:46.567Z,2.50
2022-09-09T12:11:28.637Z,5.10
2022-09-09T12:14:00.733Z,2.70
2022-09-09T12:16:35.603Z,4.70
2022-09-09T12:19:22.071Z,2.50
2022-09-09T12:22:05.451Z,1.60
2022-09-09T12:24:48.347Z,2.00
2022-09-09T12:27:27.091Z,2.60
2022-09-09T12:30:16.649Z,2.50
2022-09-09T12:32:47.583Z,2.80
2022-09-09T12:35:28.072Z,3.20
2022-09-09T12:38:04.494Z,3.70
2022-09-09T12:40:36.467Z,5.60
2022-09-09T12:43:22.637Z,3.50
2022-09-09T12:45:58.793Z,4.90
2022-09-09T12:48:34.084Z,4.20
2022-09-09T12:51:03.026Z,3.00
2022-09-09T12:53:33.090Z,2.20
2022-09-09T12:56:11.286Z,3.90
2022-09-09T12:58:41.486Z,3.80
2022-09-09T13:01:23.200Z,2.60
2022-09-09T13:03:52.163Z,5.30
2022-09-09T13:06:29.099Z,3.20
2022-09-09T13:09:00.293Z,3.00
2022-09-09T13:11:43.347Z,4.00
2022-09-09T13:14:31.289Z,2.50
2022-09-09T13:17:01.697Z,5.10
2022-09-09T13:19:46.566Z,5.50
2022-09-09T13:22:14.768Z,2.80
2022-09-09T13:24:43.819Z,5.20
2022-09-09T13:27:29.292Z,2.60
2022-09-09T13:29:58.046Z,4.10
2022-09-09T13:32:28.097Z,2.60
2022-09-09T13:35:02.663Z,2.60
2022-09-09T13:37:42.370Z,2.80
2022-09-09T13:40:20.590Z,2.90
2022-09-09T13:42:53.691Z,2.60
2022-09-09T13:45:25.578Z,3.10
2022-09-09T13:47:56.674Z,3.70
2022-09-09T13:50:30.727Z,2.50
2022-09-09T13:55:29.509Z,3.00
2022-09-09T13:58:03.828Z,2.90
2022-09-09T14:00:35.119Z,5.00
2022-09-09T14:03:03.598Z,5.50
2022-09-09T14:05:35.004Z,2.80
2022-09-09T14:08:07.698Z,2.50
2022-09-09T14:10:39.081Z,2.20
2022-09-09T14:13:07.325Z,3.00
2022-09-09T14:15:35.602Z,2.90
2022-09-09T14:18:04.015Z,2.90
2022-09-09T14:20:33.021Z,5.20
2022-09-09T14:23:03.515Z,5.10
2022-09-09T14:25:32.744Z,3.20
2022-09-09T14:28:01.539Z,4.80
2022-09-09T14:30:29.805Z,3.90
2022-09-09T14:32:58.296Z,5.80
2022-09-09T14:35:26.547Z,2.50
2022-09-09T14:37:54.757Z,4.10
2022-09-09T14:40:23.110Z,7.10
2022-09-09T14:42:51.335Z,3.70
2022-09-09T14:45:19.605Z,2.60
2022-09-09T14:47:48.500Z,7.70
2022-09-09T14:50:16.718Z,3.20
2022-09-09T14:52:45.411Z,3.40
2022-09-09T14:55:14.199Z,2.90
2022-09-09T14:57:43.531Z,5.50
2022-09-09T15:00:13.537Z,4.70
2022-09-09T15:02:41.884Z,3.00
2022-09-09T15:05:10.521Z,3.80
2022-09-09T15:07:39.353Z,3.30
2022-09-09T15:10:08.014Z,4.20
2022-09-09T15:12:36.337Z,3.90
2022-09-09T15:17:48.529Z,5.50
2022-09-09T15:20:17.798Z,2.20
2022-09-09T15:22:46.023Z,2.60
2022-09-09T15:25:14.453Z,2.60
2022-09-09T15:27:42.854Z,5.50
2022-09-09T15:30:11.879Z,2.90
2022-09-09T15:32:40.769Z,2.70
2022-09-09T15:35:09.081Z,3.30
2022-09-09T15:37:37.331Z,2.80
2022-09-09T15:40:06.121Z,3.10
2022-09-09T15:42:34.354Z,3.00
2022-09-09T15:45:02.521Z,7.80
2022-09-09T15:47:30.846Z,5.10
2022-09-09T15:49:58.994Z,3.80
2022-09-09T15:52:27.160Z,3.10
2022-09-09T15:54:55.923Z,4.70
2022-09-09T15:57:24.168Z,3.80
2022-09-09T15:59:52.358Z,3.20
2022-09-09T16:02:20.696Z,3.50
2022-09-09T16:04:48.963Z,3.70
2022-09-09T16:07:17.176Z,4.90
2022-09-09T16:09:45.513Z,3.90
2022-09-09T16:12:14.301Z,7.10
2022-09-09T16:14:42.985Z,13.90
2022-09-09T16:17:12.281Z,7.50
2022-09-09T16:19:40.757Z,5.00
2022-09-09T16:22:09.564Z,4.00
2022-09-09T16:24:37.877Z,6.40
2022-09-09T16:27:06.320Z,3.90
2022-09-09T16:29:34.647Z,4.00
2022-09-09T16:32:04.398Z,4.40
2022-09-09T16:34:34.652Z,4.10
2022-09-09T16:37:03.263Z,3.00
2022-09-09T16:39:31.789Z,4.40
2022-09-09T16:42:00.994Z,3.30
2022-09-09T16:44:29.346Z,2.50
2022-09-09T16:47:00.731Z,4.00
2022-09-09T16:49:30.029Z,3.30
2022-09-09T16:52:01.098Z,4.20
2022-09-09T16:54:30.184Z,14.20
2022-09-09T16:57:00.580Z,21.40
2022-09-09T16:59:29.530Z,15.40
2022-09-09T17:01:57.909Z,11.50
2022-09-09T17:04:31.991Z,6.70
2022-09-09T17:07:01.777Z,7.70
2022-09-09T17:09:30.455Z,8.90
2022-09-09T17:12:01.073Z,9.30
2022-09-09T17:14:32.270Z,9.00
2022-09-09T17:17:24.703Z,11.30
2022-09-09T17:19:52.287Z,26.30
2022-09-09T17:22:24.716Z,28.80
2022-09-09T17:24:53.273Z,30.00
2022-09-09T17:27:21.662Z,24.60
2022-09-09T17:29:49.999Z,21.60
2022-09-09T17:32:19.542Z,18.80
2022-09-09T17:34:47.790Z,17.10
2022-09-09T17:37:15.995Z,24.20
2022-09-09T17:39:44.394Z,23.00
2022-09-09T17:42:12.638Z,23.30
2022-09-09T17:44:42.870Z,19.60
2022-09-09T17:47:11.202Z,17.90
2022-09-09T17:49:39.567Z,15.30
2022-09-09T17:52:07.782Z,14.60
2022-09-09T17:54:36.702Z,11.30
2022-09-09T17:57:05.186Z,7.90
2022-09-09T17:59:33.403Z,8.20
2022-09-09T18:02:02.060Z,12.70
2022-09-09T18:04:30.478Z,7.40
2022-09-09T18:06:59.412Z,12.90
2022-09-09T18:09:28.206Z,7.80
2022-09-09T18:11:58.860Z,8.00
2022-09-09T18:14:31.323Z,15.00
2022-09-09T18:17:01.360Z,15.10
2022-09-09T18:19:33.029Z,7.80
2022-09-09T18:22:05.245Z,15.00
2022-09-09T18:24:34.179Z,9.40
2022-09-09T18:27:04.173Z,8.30
2022-09-09T18:29:33.367Z,10.80
2022-09-09T18:32:01.834Z,7.70
2022-09-09T18:34:31.025Z,6.70
2022-09-09T18:36:59.509Z,9.90
2022-09-09T18:39:29.824Z,8.00
2022-09-09T18:42:01.638Z,13.80
2022-09-09T18:44:33.949Z,12.60
2022-09-09T18:47:03.779Z,8.60
2022-09-09T18:49:33.815Z,7.60
2022-09-09T18:52:04.718Z,9.60
2022-09-09T18:54:34.454Z,10.30
2022-09-09T18:57:02.815Z,10.90
2022-09-09T18:59:31.524Z,6.60
2022-09-09T19:02:01.070Z,7.70
2022-09-09T19:04:33.075Z,6.10
2022-09-09T19:07:01.696Z,9.00
2022-09-09T19:09:33.842Z,11.00
2022-09-09T19:12:02.950Z,8.70
2022-09-09T19:14:31.579Z,9.10
2022-09-09T19:17:01.353Z,9.00
2022-09-09T19:19:32.527Z,10.00
2022-09-09T19:22:03.741Z,8.90
2022-09-09T19:24:33.727Z,10.60
2022-09-09T19:27:04.566Z,8.00
2022-09-09T19:29:39.601Z,8.20
2022-09-09T19:35:06.084Z,12.00
2022-09-09T19:37:34.929Z,9.70
2022-09-09T19:40:06.959Z,9.80
2022-09-09T19:42:35.283Z,8.10
2022-09-09T19:45:05.171Z,10.40
2022-09-09T19:47:34.153Z,11.00
2022-09-09T19:50:05.867Z,9.10
2022-09-09T19:52:35.305Z,8.60
2022-09-09T19:55:03.968Z,10.40
2022-09-09T19:57:32.490Z,14.20
2022-09-09T20:00:01.079Z,13.00
2022-09-09T20:02:29.656Z,12.20
2022-09-09T20:04:58.666Z,15.90
2022-09-09T20:07:27.113Z,15.70
2022-09-09T20:09:55.475Z,18.20
2022-09-09T20:12:23.850Z,19.10
2022-09-09T20:14:52.166Z,18.70
2022-09-09T20:17:21.523Z,13.40
2022-09-09T20:19:49.753Z,17.00
2022-09-09T20:22:17.991Z,11.30
2022-09-09T20:24:46.464Z,13.10
2022-09-09T20:27:14.715Z,12.80
2022-09-09T20:29:43.092Z,16.50
2022-09-09T20:32:12.359Z,13.40
2022-09-09T20:34:43.189Z,17.90
2022-09-09T20:37:18.027Z,15.60
2022-09-09T20:39:46.662Z,14.70
2022-09-09T20:42:15.482Z,14.10
2022-09-09T20:44:43.814Z,15.30
2022-09-09T20:47:13.183Z,12.30
2022-09-09T20:49:41.485Z,17.30
2022-09-09T20:52:11.753Z,13.40
2022-09-09T20:54:41.023Z,12.70
2022-09-09T20:57:09.641Z,16.50
2022-09-09T20:59:38.114Z,11.20
2022-09-09T21:02:06.865Z,13.30
2022-09-09T21:04:38.587Z,12.60
2022-09-09T21:07:07.679Z,12.30
2022-09-09T21:09:36.377Z,14.50
2022-09-09T21:12:04.802Z,17.10
2022-09-09T21:14:33.197Z,17.10
2022-09-09T21:17:03.359Z,18.90
2022-09-09T21:19:31.634Z,13.70
2022-09-09T21:22:00.397Z,16.10
2022-09-09T21:24:29.288Z,18.00
2022-09-09T21:26:57.530Z,17.50
2022-09-09T21:29:25.821Z,14.40
2022-09-09T21:31:55.858Z,15.10
2022-09-09T21:34:24.044Z,17.60
2022-09-09T21:36:52.274Z,15.90
2022-09-09T21:39:20.474Z,17.00
2022-09-09T21:41:48.738Z,19.80
2022-09-09T21:44:17.042Z,16.80
2022-09-09T21:46:45.338Z,16.40
2022-09-09T21:49:14.202Z,17.90
2022-09-09T21:51:42.542Z,20.20
2022-09-09T21:54:10.706Z,15.20
2022-09-09T21:56:39.663Z,19.70
2022-09-09T21:59:08.233Z,22.00
2022-09-09T22:01:36.680Z,20.00
2022-09-09T22:04:05.139Z,18.70
2022-09-09T22:06:33.979Z,18.80
2022-09-09T22:09:03.992Z,21.80
2022-09-09T22:11:32.201Z,20.30
2022-09-09T22:14:01.701Z,18.10
2022-09-09T22:16:29.975Z,18.60
2022-09-09T22:19:00.374Z,17.10
2022-09-09T22:21:30.839Z,20.60
2022-09-09T22:24:01.959Z,17.80
2022-09-09T22:26:33.335Z,20.80
2022-09-09T22:29:02.121Z,18.10
2022-09-09T22:31:31.570Z,17.90
2022-09-09T22:33:59.831Z,20.50
2022-09-09T22:36:28.141Z,22.50
2022-09-09T22:38:56.851Z,22.10
2022-09-09T22:41:25.368Z,22.50
2022-09-09T22:43:53.729Z,25.80
2022-09-09T22:46:23.881Z,18.70
2022-09-09T22:48:52.170Z,23.90
2022-09-09T22:51:20.553Z,23.90
2022-09-09T22:53:48.952Z,19.70
2022-09-09T22:56:19.846Z,21.70
2022-09-09T22:58:55.414Z,25.00
2022-09-09T23:01:25.486Z,24.30
2022-09-09T23:03:59.521Z,25.90
2022-09-09T23:06:29.029Z,25.30
2022-09-09T23:09:02.733Z,19.50
2022-09-09T23:11:34.794Z,24.10
2022-09-09T23:14:06.677Z,25.90
2022-09-09T23:16:39.807Z,24.90
2022-09-09T23:19:10.950Z,24.90
2022-09-09T23:21:40.622Z,31.20
2022-09-09T23:24:12.037Z,34.00
2022-09-09T23:26:41.881Z,37.10
2022-09-09T23:29:14.459Z,34.40
2022-09-09T23:31:45.077Z,31.80
2022-09-09T23:34:14.358Z,28.80
2022-09-09T23:36:42.818Z,25.80
2022-09-09T23:39:12.176Z,27.00
2022-09-09T23:41:41.190Z,25.70
2022-09-09T23:44:12.886Z,32.70
2022-09-09T23:46:41.788Z,42.60
2022-09-09T23:49:10.142Z,44.30
2022-09-09T23:51:38.466Z,38.90
2022-09-09T23:54:07.395Z,29.80
2022-09-09T23:56:39.338Z,30.40
2022-09-09T23:59:08.539Z,33.30
